Time;durP1;ratioP1;P1;durP2;ratioP2;P2;SDS_P1;SDS_P2;PMS_P1;PMS_P2;Temp;Humidity;BMP_temperature;BMP_pressure;BME280_temperature;BME280_humidity;BME280_pressure;Samples;Min_cycle;Max_cycle;Signal;HPM_P1;HPM_P2
2021/08/09 00:00:16;;;;;;;;;;;;;;;;;;5051407;28;19924;-72
2021/08/09 00:02:41;;;;;;;;;;;;;;;;;;5050892;28;19960;-72
2021/08/09 00:05:07;;;;;;;;;;;;;;;;;;5053033;28;19913;-71
2021/08/09 00:07:33;;;;;;;;;;;;;;;;;;5056123;28;19924;-72
2021/08/09 00:09:59;;;;;;;;;;;;;;;;;;5055438;28;19909;-72
2021/08/09 00:12:25;;;;;;;;;;;;;;;;;;5055023;28;19919;-72
2021/08/09 00:14:51;;;;;;;;;;;;;;;;;;5054897;28;19923;-72
2021/08/09 00:17:17;;;;;;;;;;;;;;;;;;5054911;28;19913;-72
2021/08/09 00:19:43;;;;;;;;;;;;;;;;;;5055702;28;19955;-72
2021/08/09 00:22:08;;;;;;;;;;;;;;;;;;5054611;28;20014;-72
2021/08/09 00:24:34;;;;;;;;;;;;;;;;;;5054949;28;19959;-72
2021/08/09 00:27:00;;;;;;;;;;;;;;;;;;5054454;28;20279;-72
2021/08/09 00:29:26;;;;;;;;;;;;;;;;;;5054849;28;20004;-72
2021/08/09 00:31:52;;;;;;;;;;;;;;;;;;5055002;28;19920;-72
2021/08/09 00:34:19;;;;;;;;;;;;;;;;;;5055114;28;19920;-71
2021/08/09 00:36:45;;;;;;;;;;;;;;;;;;5054565;28;19908;-72
2021/08/09 00:39:11;;;;;;;;;;;;;;;;;;5054804;28;19916;-72
2021/08/09 00:41:37;;;;;;;;;;;;;;;;;;5054739;28;19920;-71
2021/08/09 00:44:03;;;;;;;;;;;;;;;;;;5054340;28;19920;-71
2021/08/09 00:46:29;;;;;;;;;;;;;;;;;;5055209;28;20379;-71
2021/08/09 00:48:55;;;;;;;;;;;;;;;;;;5054153;28;19909;-71
2021/08/09 00:51:21;;;;;;;;;;;;;;;;;;5054493;28;20062;-71
2021/08/09 00:53:47;;;;;;;;;;;;;;;;;;5054254;28;19920;-71
2021/08/09 00:56:13;;;;;;;;;;;;;;;;;;5054082;28;20396;-71
2021/08/09 00:58:38;;;;;;;;;;;;;;;;;;5055062;28;20368;-71
2021/08/09 01:01:04;;;;;;;;;;;;;;;;;;5054378;28;19917;-72
2021/08/09 01:03:30;;;;;;;;;;;;;;;;;;5035549;28;19913;-71
2021/08/09 01:05:56;;;;;;;;;;;;;;;;;;5054277;28;19918;-72
2021/08/09 01:08:22;;;;;;;;;;;;;;;;;;5054407;28;19920;-72
2021/08/09 01:10:52;;;;;;;;;;;;;;;;;;5054644;28;19944;-72
2021/08/09 01:13:18;;;;;;;;;;;;;;;;;;5053834;28;19920;-72
2021/08/09 01:15:44;;;;;;;;;;;;;;;;;;5052811;28;19920;-72
2021/08/09 01:18:09;;;;;;;;;;;;;;;;;;5053773;28;19952;-72
2021/08/09 01:20:35;;;;;;;;;;;;;;;;;;5054030;28;20368;-72
2021/08/09 01:23:01;;;;;;;;;;;;;;;;;;5053734;28;19917;-71
2021/08/09 01:25:27;;;;;;;;;;;;;;;;;;5031858;28;19920;-72
2021/08/09 01:27:53;;;;;;;;;;;;;;;;;;5036037;28;20221;-71
2021/08/09 01:30:19;;;;;;;;;;;;;;;;;;5053655;28;19992;-71
2021/08/09 01:32:45;;;;;;;;;;;;;;;;;;5053120;28;19920;-71
2021/08/09 01:35:11;;;;;;;;;;;;;;;;;;5053762;28;20042;-72
2021/08/09 01:37:37;;;;;;;;;;;;;;;;;;5054497;28;19962;-72
2021/08/09 01:40:02;;;;;;;;;;;;;;;;;;5053093;28;19909;-72
2021/08/09 01:42:28;;;;;;;;;;;;;;;;;;5053361;28;19924;-71
2021/08/09 01:44:54;;;;;;;;;;;;;;;;;;5053594;28;19978;-72
2021/08/09 01:47:20;;;;;;;;;;;;;;;;;;5053409;28;20007;-72
2021/08/09 01:49:46;;;;;;;;;;;;;;;;;;5038367;28;20230;-72
2021/08/09 01:52:12;;;;;;;;;;;;;;;;;;5053025;28;19916;-71
2021/08/09 01:54:38;;;;;;;;;;;;;;;;;;5052870;28;20279;-71
2021/08/09 01:57:04;;;;;;;;;;;;;;;;;;5053137;28;19935;-72
2021/08/09 01:59:31;;;;;;;;;;;;;;;;;;5052549;28;20509;-71
2021/08/09 02:01:57;;;;;;;;;;;;;;;;;;5053055;28;20340;-72
2021/08/09 02:04:23;;;;;;;;;;;;;;;;;;5053305;28;19976;-72
2021/08/09 02:06:49;;;;;;;;;;;;;;;;;;5052681;28;19959;-72
2021/08/09 02:09:16;;;;;;;;;;;;;;;;;;5052873;28;19920;-72
2021/08/09 02:11:42;;;;;;;;;;;;;;;;;;5052929;28;19927;-71
2021/08/09 02:14:08;;;;;;;;;;;;;;;;;;5052955;28;20007;-71
2021/08/09 02:16:33;;;;;;;;;;;;;;;;;;5053123;28;19921;-72
2021/08/09 02:18:59;;;;;;;;;;;;;;;;;;5051980;28;20433;-72
2021/08/09 02:21:25;;;;;;;;;;;;;;;;;;5052773;28;19938;-72
2021/08/09 02:23:51;;;;;;;;;;;;;;;;;;5052908;28;19951;-71
2021/08/09 02:26:17;;;;;;;;;;;;;;;;;;5052569;28;20445;-71
2021/08/09 02:28:43;;;;;;;;;;;;;;;;;;5052991;28;19908;-72
2021/08/09 02:31:09;;;;;;;;;;;;;;;;;;5052374;28;19963;-71
2021/08/09 02:33:35;;;;;;;;;;;;;;;;;;5051979;28;19948;-71
2021/08/09 02:36:01;;;;;;;;;;;;;;;;;;5052237;28;19928;-72
2021/08/09 02:38:27;;;;;;;;;;;;;;;;;;5052327;28;20394;-72
2021/08/09 02:40:52;;;;;;;;;;;;;;;;;;5052343;28;19999;-71
2021/08/09 02:43:18;;;;;;;;;;;;;;;;;;5052838;28;20281;-71
2021/08/09 02:45:44;;;;;;;;;;;;;;;;;;5051736;28;19952;-71
2021/08/09 02:48:10;;;;;;;;;;;;;;;;;;5052112;28;20368;-72
2021/08/09 02:50:36;;;;;;;;;;;;;;;;;;5052070;28;19912;-71
2021/08/09 02:53:02;;;;;;;;;;;;;;;;;;5052491;28;19916;-71
2021/08/09 02:55:28;;;;;;;;;;;;;;;;;;5052247;28;20284;-72
2021/08/09 02:57:54;;;;;;;;;;;;;;;;;;5052119;28;19982;-71
2021/08/09 03:00:19;;;;;;;;;;;;;;;;;;5051870;28;19959;-71
2021/08/09 03:02:45;;;;;;;;;;;;;;;;;;5051608;28;19963;-71
2021/08/09 03:05:11;;;;;;;;;;;;;;;;;;5051607;28;20000;-72
2021/08/09 03:07:37;;;;;;;;;;;;;;;;;;5052679;28;20360;-72
2021/08/09 03:10:03;;;;;;;;;;;;;;;;;;5051986;28;19912;-71
2021/08/09 03:12:29;;;;;;;;;;;;;;;;;;5051211;28;19952;-71
2021/08/09 03:14:55;;;;;;;;;;;;;;;;;;5051444;28;19927;-71
2021/08/09 03:17:21;;;;;;;;;;;;;;;;;;5051893;28;19913;-71
2021/08/09 03:19:46;;;;;;;;;;;;;;;;;;5052182;28;19955;-71
2021/08/09 03:22:12;;;;;;;;;;;;;;;;;;5051640;28;19913;-71
2021/08/09 03:24:39;;;;;;;;;;;;;;;;;;5051458;28;20038;-72
2021/08/09 03:27:05;;;;;;;;;;;;;;;;;;5051594;28;19912;-71
2021/08/09 03:29:30;;;;;;;;;;;;;;;;;;5051667;28;19913;-71
2021/08/09 03:31:56;;;;;;;;;;;;;;;;;;5051574;28;19998;-71
2021/08/09 03:34:22;;;;;;;;;;;;;;;;;;5052097;28;19948;-72
2021/08/09 03:36:49;;;;;;;;;;;;;;;;;;5051115;28;20292;-72
2021/08/09 03:39:15;;;;;;;;;;;;;;;;;;5050790;28;20450;-71
2021/08/09 03:41:41;;;;;;;;;;;;;;;;;;5051668;28;19913;-72
2021/08/09 03:44:07;;;;;;;;;;;;;;;;;;5050765;28;19913;-72
2021/08/09 03:46:33;;;;;;;;;;;;;;;;;;5052205;28;19909;-72
2021/08/09 03:48:59;;;;;;;;;;;;;;;;;;5051598;28;20426;-71
2021/08/09 03:51:25;;;;;;;;;;;;;;;;;;5051236;28;19944;-72
2021/08/09 03:53:51;;;;;;;;;;;;;;;;;;5051302;28;19913;-71
2021/08/09 03:56:17;;;;;;;;;;;;;;;;;;5050524;28;20423;-71
2021/08/09 03:58:42;;;;;;;;;;;;;;;;;;5051875;28;19958;-72
2021/08/09 04:01:08;;;;;;;;;;;;;;;;;;5051203;28;20357;-71
2021/08/09 04:03:34;;;;;;;;;;;;;;;;;;5050951;28;19916;-72
2021/08/09 04:06:00;;;;;;;;;;;;;;;;;;5051042;28;19916;-72
2021/08/09 04:08:26;;;;;;;;;;;;;;;;;;5051044;28;19975;-71
2021/08/09 04:10:52;;;;;;;;;;;;;;;;;;5051349;28;19997;-71
2021/08/09 04:13:19;;;;;;;;;;;;;;;;;;5051004;28;19913;-72
2021/08/09 04:15:45;;;;;;;;;;;;;;;;;;5050819;28;19924;-71
2021/08/09 04:18:11;;;;;;;;;;;;;;;;;;5051212;28;19917;-71
2021/08/09 04:20:37;;;;;;;;;;;;;;;;;;5050929;28;19919;-72
2021/08/09 04:23:03;;;;;;;;;;;;;;;;;;5051220;28;19917;-71
2021/08/09 04:25:29;;;;;;;;;;;;;;;;;;5051055;28;19913;-72
2021/08/09 04:27:55;;;;;;;;;;;;;;;;;;5051062;28;19909;-71
2021/08/09 04:30:21;;;;;;;;;;;;;;;;;;5050905;28;19964;-71
2021/08/09 04:32:46;;;;;;;;;;;;;;;;;;5051066;28;20287;-72
2021/08/09 04:35:13;;;;;;;;;;;;;;;;;;5050670;28;19968;-71
2021/08/09 04:37:39;;;;;;;;;;;;;;;;;;5051223;28;20283;-71
2021/08/09 04:40:04;;;;;;;;;;;;;;;;;;5050617;28;19999;-71
2021/08/09 04:42:30;;;;;;;;;;;;;;;;;;5050865;28;19913;-71
2021/08/09 04:44:56;;;;;;;;;;;;;;;;;;5032812;28;19976;-71
2021/08/09 04:47:22;;;;;;;;;;;;;;;;;;5050584;28;19994;-72
2021/08/09 04:49:48;;;;;;;;;;;;;;;;;;5051187;28;20307;-72
2021/08/09 04:52:15;;;;;;;;;;;;;;;;;;5043120;28;19917;-71
2021/08/09 04:54:41;;;;;;;;;;;;;;;;;;5051067;28;19916;-72
2021/08/09 04:57:07;;;;;;;;;;;;;;;;;;5053839;28;19928;-71
2021/08/09 04:59:33;;;;;;;;;;;;;;;;;;5052367;28;20387;-71
2021/08/09 05:01:59;;;;;;;;;;;;;;;;;;5037826;28;19914;-71
2021/08/09 05:04:25;;;;;;;;;;;;;;;;;;5054516;28;19916;-71
2021/08/09 05:06:51;;;;;;;;;;;;;;;;;;5054214;28;19913;-71
2021/08/09 05:09:17;;;;;;;;;;;;;;;;;;5053675;28;19912;-66
2021/08/09 05:11:43;;;;;;;;;;;;;;;;;;5053667;28;19920;-66
2021/08/09 05:14:09;;;;;;;;;;;;;;;;;;5054030;28;19962;-66
2021/08/09 05:16:37;;;;;;;;;;;;;;;;;;5054696;28;19924;-66
2021/08/09 05:19:03;;;;;;;;;;;;;;;;;;5053641;28;20012;-67
2021/08/09 05:21:29;;;;;;;;;;;;;;;;;;5054166;28;19966;-66
2021/08/09 05:23:55;;;;;;;;;;;;;;;;;;5053512;28;19995;-67
2021/08/09 05:26:21;;;;;;;;;;;;;;;;;;5053353;28;19913;-67
2021/08/09 05:28:47;;;;;;;;;;;;;;;;;;5054396;28;19916;-67
2021/08/09 05:31:13;;;;;;;;;;;;;;;;;;5053659;28;19913;-66
2021/08/09 05:33:39;;;;;;;;;;;;;;;;;;5053629;28;20058;-67
2021/08/09 05:36:05;;;;;;;;;;;;;;;;;;5053633;28;19921;-67
2021/08/09 05:38:31;;;;;;;;;;;;;;;;;;5053598;28;19913;-67
2021/08/09 05:40:57;;;;;;;;;;;;;;;;;;5053164;28;19909;-67
2021/08/09 05:43:22;;;;;;;;;;;;;;;;;;5054231;28;19905;-66
2021/08/09 05:45:48;;;;;;;;;;;;;;;;;;5053535;28;19916;-66
2021/08/09 05:48:14;;;;;;;;;;;;;;;;;;5053336;28;19920;-67
2021/08/09 05:50:40;;;;;;;;;;;;;;;;;;5053496;28;19912;-67
2021/08/09 05:53:06;;;;;;;;;;;;;;;;;;5052408;28;19913;-67
2021/08/09 05:55:32;;;;;;;;;;;;;;;;;;5053780;28;20288;-68
2021/08/09 05:57:58;;;;;;;;;;;;;;;;;;5048667;28;19913;-67
2021/08/09 06:00:24;;;;;;;;;;;;;;;;;;5053212;28;19938;-67
2021/08/09 06:02:50;;;;;;;;;;;;;;;;;;5049370;28;19913;-73
2021/08/09 06:05:16;;;;;;;;;;;;;;;;;;5038239;28;20038;-73
2021/08/09 06:07:42;;;;;;;;;;;;;;;;;;5043908;28;19909;-67
2021/08/09 06:10:08;;;;;;;;;;;;;;;;;;5040657;28;19928;-67
2021/08/09 06:12:35;;;;;;;;;;;;;;;;;;5037503;28;19983;-69
2021/08/09 06:15:01;;;;;;;;;;;;;;;;;;5037631;28;19960;-69
2021/08/09 06:17:27;;;;;;;;;;;;;;;;;;5036628;28;19963;-70
2021/08/09 06:19:53;;;;;;;;;;;;;;;;;;5045707;28;19945;-69
2021/08/09 06:22:19;;;;;;;;;;;;;;;;;;5050938;28;19909;-69
2021/08/09 06:24:44;;;;;;;;;;;;;;;;;;5050762;28;19916;-69
2021/08/09 06:27:10;;;;;;;;;;;;;;;;;;5039523;28;20011;-68
2021/08/09 06:29:36;;;;;;;;;;;;;;;;;;5038849;28;20392;-69
2021/08/09 06:32:02;;;;;;;;;;;;;;;;;;5048958;28;19915;-69
2021/08/09 06:34:28;;;;;;;;;;;;;;;;;;5051657;28;19920;-67
2021/08/09 06:36:54;;;;;;;;;;;;;;;;;;5050477;28;19925;-69
2021/08/09 06:39:20;;;;;;;;;;;;;;;;;;5031708;28;19913;-70
2021/08/09 06:41:46;;;;;;;;;;;;;;;;;;5046405;28;19956;-72
2021/08/09 06:44:12;;;;;;;;;;;;;;;;;;5051180;28;19965;-71
2021/08/09 06:46:38;;;;;;;;;;;;;;;;;;5034284;28;19912;-71
2021/08/09 06:49:04;;;;;;;;;;;;;;;;;;5050195;28;19919;-68
2021/08/09 06:51:30;;;;;;;;;;;;;;;;;;5036878;28;19913;-71
2021/08/09 06:53:56;;;;;;;;;;;;;;;;;;5040629;28;19912;-72
2021/08/09 06:56:22;;;;;;;;;;;;;;;;;;5048184;28;20437;-67
2021/08/09 06:58:48;;;;;;;;;;;;;;;;;;5052289;28;19916;-65
2021/08/09 07:01:14;;;;;;;;;;;;;;;;;;5032490;28;19979;-67
2021/08/09 07:03:43;;;;;;;;;;;;;;;;;;5045507;28;19913;-67
2021/08/09 07:06:08;;;;;;;;;;;;;;;;;;5049266;28;19924;-67
2021/08/09 07:08:34;;;;;;;;;;;;;;;;;;5048017;28;19921;-68
2021/08/09 07:11:00;;;;;;;;;;;;;;;;;;5049790;28;20345;-68
2021/08/09 07:13:26;;;;;;;;;;;;;;;;;;5050934;28;19916;-68
2021/08/09 07:15:52;;;;;;;;;;;;;;;;;;5050829;28;19921;-68
2021/08/09 07:18:18;;;;;;;;;;;;;;;;;;5051080;28;19913;-67
2021/08/09 07:20:44;;;;;;;;;;;;;;;;;;5050476;28;19916;-67
2021/08/09 07:23:10;;;;;;;;;;;;;;;;;;5048406;28;20044;-68
2021/08/09 07:25:36;;;;;;;;;;;;;;;;;;5052060;28;20364;-68
2021/08/09 07:28:01;;;;;;;;;;;;;;;;;;5051400;28;20007;-65
2021/08/09 07:30:27;;;;;;;;;;;;;;;;;;5045981;28;19919;-66
2021/08/09 07:32:53;;;;;;;;;;;;;;;;;;5051077;28;19917;-65
2021/08/09 07:35:19;;;;;;;;;;;;;;;;;;5051244;28;19923;-65
2021/08/09 07:37:45;;;;;;;;;;;;;;;;;;5051942;28;19921;-65
2021/08/09 07:40:11;;;;;;;;;;;;;;;;;;5050136;28;19917;-65
2021/08/09 07:42:37;;;;;;;;;;;;;;;;;;5050744;28;19920;-65
2021/08/09 07:45:03;;;;;;;;;;;;;;;;;;5051241;28;19920;-65
2021/08/09 07:47:29;;;;;;;;;;;;;;;;;;5051469;28;20391;-65
2021/08/09 07:49:55;;;;;;;;;;;;;;;;;;5050050;28;19992;-65
2021/08/09 07:52:21;;;;;;;;;;;;;;;;;;5051765;28;20003;-65
2021/08/09 07:54:47;;;;;;;;;;;;;;;;;;5050623;28;19912;-65
2021/08/09 07:57:14;;;;;;;;;;;;;;;;;;5051250;28;19921;-65
2021/08/09 07:59:40;;;;;;;;;;;;;;;;;;5047770;28;19919;-65
2021/08/09 08:02:06;;;;;;;;;;;;;;;;;;5033618;28;20288;-65
2021/08/09 08:04:32;;;;;;;;;;;;;;;;;;5051491;28;19909;-65
2021/08/09 08:06:57;;;;;;;;;;;;;;;;;;5050592;28;19920;-65
2021/08/09 08:09:23;;;;;;;;;;;;;;;;;;5050453;28;20457;-65
2021/08/09 08:11:49;;;;;;;;;;;;;;;;;;5050996;28;19947;-65
2021/08/09 08:14:15;;;;;;;;;;;;;;;;;;5050457;28;19919;-68
2021/08/09 08:16:41;;;;;;;;;;;;;;;;;;5033689;28;19963;-67
2021/08/09 08:19:07;;;;;;;;;;;;;;;;;;5050956;28;19912;-67
2021/08/09 08:21:33;;;;;;;;;;;;;;;;;;5050186;28;19913;-67
2021/08/09 08:23:59;;;;;;;;;;;;;;;;;;5041596;28;19913;-68
2021/08/09 08:26:24;;;;;;;;;;;;;;;;;;5053278;28;19917;-67
2021/08/09 08:28:50;;;;;;;;;;;;;;;;;;5054731;28;19913;-68
2021/08/09 08:31:16;;;;;;;;;;;;;;;;;;5042865;28;20006;-67
2021/08/09 08:33:42;;;;;;;;;;;;;;;;;;5049282;28;19916;-67
2021/08/09 08:36:08;;;;;;;;;;;;;;;;;;5054551;28;20269;-67
2021/08/09 08:38:35;;;;;;;;;;;;;;;;;;5054155;28;19913;-67
2021/08/09 08:41:01;;;;;;;;;;;;;;;;;;5043762;28;19920;-67
2021/08/09 08:43:27;;;;;;;;;;;;;;;;;;5034585;28;19913;-67
2021/08/09 08:45:52;;;;;;;;;;;;;;;;;;5044300;28;19931;-64
2021/08/09 08:48:18;;;;;;;;;;;;;;;;;;5052552;28;19928;-64
2021/08/09 08:50:44;;;;;;;;;;;;;;;;;;5052283;28;19959;-67
2021/08/09 08:53:10;;;;;;;;;;;;;;;;;;5049754;28;19999;-64
2021/08/09 08:55:36;;;;;;;;;;;;;;;;;;5053412;28;20412;-66
2021/08/09 08:58:02;;;;;;;;;;;;;;;;;;5036421;28;19923;-67
2021/08/09 09:00:28;;;;;;;;;;;;;;;;;;5051536;28;19916;-67
2021/08/09 09:02:54;;;;;;;;;;;;;;;;;;5037311;28;19913;-67
2021/08/09 09:05:20;;;;;;;;;;;;;;;;;;5033854;28;19952;-67
2021/08/09 09:07:45;;;;;;;;;;;;;;;;;;5051335;28;20411;-68
2021/08/09 09:10:11;;;;;;;;;;;;;;;;;;5052442;28;19925;-68
2021/08/09 09:12:37;;;;;;;;;;;;;;;;;;5046166;28;19920;-69
2021/08/09 09:15:03;;;;;;;;;;;;;;;;;;5044014;28;20357;-67
2021/08/09 09:17:29;;;;;;;;;;;;;;;;;;5053514;28;19913;-67
2021/08/09 09:19:55;;;;;;;;;;;;;;;;;;5018690;28;19913;-68
2021/08/09 09:22:21;;;;;;;;;;;;;;;;;;5053456;28;19904;-67
2021/08/09 09:24:48;;;;;;;;;;;;;;;;;;5053812;28;20000;-67
2021/08/09 09:27:14;;;;;;;;;;;;;;;;;;5048486;28;20015;-67
2021/08/09 09:29:40;;;;;;;;;;;;;;;;;;5053015;28;20007;-67
2021/08/09 09:32:05;;;;;;;;;;;;;;;;;;5045776;28;20385;-67
2021/08/09 09:34:31;;;;;;;;;;;;;;;;;;5035591;28;19980;-67
2021/08/09 09:36:57;;;;;;;;;;;;;;;;;;5040684;28;19921;-67
2021/08/09 09:39:23;;;;;;;;;;;;;;;;;;5046215;28;19913;-67
2021/08/09 09:41:49;;;;;;;;;;;;;;;;;;5050452;28;19913;-67
2021/08/09 09:44:15;;;;;;;;;;;;;;;;;;5037423;28;20402;-67
2021/08/09 09:46:44;;;;;;;;;;;;;;;;;;5052298;28;19916;-67
2021/08/09 09:49:10;;;;;;;;;;;;;;;;;;5052695;28;19913;-65
2021/08/09 09:51:36;;;;;;;;;;;;;;;;;;5045246;28;20003;-67
2021/08/09 09:54:02;;;;;;;;;;;;;;;;;;5048523;28;20391;-67
2021/08/09 09:56:28;;;;;;;;;;;;;;;;;;5051582;28;19967;-67
2021/08/09 09:58:54;;;;;;;;;;;;;;;;;;5049380;28;19999;-67
2021/08/09 10:01:19;;;;;;;;;;;;;;;;;;5034108;28;19916;-68
2021/08/09 10:03:46;;;;;;;;;;;;;;;;;;5029444;28;19961;-68
2021/08/09 10:06:12;;;;;;;;;;;;;;;;;;5049812;28;20350;-68
2021/08/09 10:08:38;;;;;;;;;;;;;;;;;;5052281;28;20000;-68
2021/08/09 10:11:07;;;;;;;;;;;;;;;;;;5052645;28;19913;-68
2021/08/09 10:13:33;;;;;;;;;;;;;;;;;;5050778;28;20307;-68
2021/08/09 10:15:58;;;;;;;;;;;;;;;;;;5052907;28;19928;-68
2021/08/09 10:18:24;;;;;;;;;;;;;;;;;;5051897;28;19917;-68
2021/08/09 10:20:50;;;;;;;;;;;;;;;;;;5052610;28;20026;-68
2021/08/09 10:23:16;;;;;;;;;;;;;;;;;;5051923;28;20375;-69
2021/08/09 10:25:42;;;;;;;;;;;;;;;;;;5053235;28;19978;-70
2021/08/09 10:28:08;;;;;;;;;;;;;;;;;;5052028;28;19913;-69
2021/08/09 10:30:34;;;;;;;;;;;;;;;;;;5052405;28;20396;-65
2021/08/09 10:33:01;;;;;;;;;;;;;;;;;;5051764;28;19917;-68
2021/08/09 10:35:27;;;;;;;;;;;;;;;;;;5045857;28;19916;-68
2021/08/09 10:37:53;;;;;;;;;;;;;;;;;;5052638;28;19916;-70
2021/08/09 10:40:19;;;;;;;;;;;;;;;;;;5051843;28;19955;-69
2021/08/09 10:42:45;;;;;;;;;;;;;;;;;;5051941;28;19917;-69
2021/08/09 10:45:11;;;;;;;;;;;;;;;;;;5051771;28;19917;-69
2021/08/09 10:47:37;;;;;;;;;;;;;;;;;;5051648;28;19956;-69
2021/08/09 10:50:03;;;;;;;;;;;;;;;;;;5052002;28;20376;-68
2021/08/09 10:52:29;;;;;;;;;;;;;;;;;;5052177;28;19963;-69
2021/08/09 10:54:54;;;;;;;;;;;;;;;;;;5051860;28;19923;-68
2021/08/09 10:57:20;;;;;;;;;;;;;;;;;;5046956;28;19912;-69
2021/08/09 10:59:46;;;;;;;;;;;;;;;;;;5052172;28;19955;-69
2021/08/09 11:02:12;;;;;;;;;;;;;;;;;;5051827;28;20007;-69
2021/08/09 11:04:38;;;;;;;;;;;;;;;;;;5052365;28;20024;-69
2021/08/09 11:07:04;;;;;;;;;;;;;;;;;;5051669;28;19916;-69
2021/08/09 11:09:33;;;;;;;;;;;;;;;;;;5051835;28;20284;-69
2021/08/09 11:11:58;;;;;;;;;;;;;;;;;;5051173;28;19913;-68
2021/08/09 11:14:24;;;;;;;;;;;;;;;;;;5050926;28;19939;-68
2021/08/09 11:16:50;;;;;;;;;;;;;;;;;;5044453;28;19924;-68
2021/08/09 11:19:16;;;;;;;;;;;;;;;;;;5051866;28;20420;-68
2021/08/09 11:21:42;;;;;;;;;;;;;;;;;;5050885;28;19913;-68
2021/08/09 11:24:08;;;;;;;;;;;;;;;;;;5051740;28;19927;-68
2021/08/09 11:26:35;;;;;;;;;;;;;;;;;;5051253;28;20011;-68
2021/08/09 11:29:01;;;;;;;;;;;;;;;;;;5051816;28;19952;-68
2021/08/09 11:31:27;;;;;;;;;;;;;;;;;;5052117;28;19944;-68
2021/08/09 11:33:53;;;;;;;;;;;;;;;;;;5050929;28;20003;-68
2021/08/09 11:36:19;;;;;;;;;;;;;;;;;;5051105;28;19983;-68
2021/08/09 11:38:47;;;;;;;;;;;;;;;;;;5051468;28;19919;-68
2021/08/09 11:41:12;;;;;;;;;;;;;;;;;;5051194;28;19913;-68
2021/08/09 11:43:38;;;;;;;;;;;;;;;;;;5034183;28;19971;-68
2021/08/09 11:46:04;;;;;;;;;;;;;;;;;;5051088;28;19999;-68
2021/08/09 11:48:30;;;;;;;;;;;;;;;;;;5051122;28;19940;-68
2021/08/09 11:50:56;;;;;;;;;;;;;;;;;;5051042;28;19920;-68
2021/08/09 11:53:22;;;;;;;;;;;;;;;;;;5051276;28;19923;-68
2021/08/09 11:55:48;;;;;;;;;;;;;;;;;;5051371;28;20296;-68
2021/08/09 11:58:14;;;;;;;;;;;;;;;;;;5046943;28;19967;-68
2021/08/09 12:00:40;;;;;;;;;;;;;;;;;;5052185;28;20421;-68
2021/08/09 12:03:06;;;;;;;;;;;;;;;;;;5055381;28;19919;-68
2021/08/09 12:05:32;;;;;;;;;;;;;;;;;;5055139;28;20011;-69
2021/08/09 12:07:58;;;;;;;;;;;;;;;;;;5055687;28;20299;-68
2021/08/09 12:10:24;;;;;;;;;;;;;;;;;;5054405;28;19945;-68
2021/08/09 12:12:50;;;;;;;;;;;;;;;;;;5055454;28;19913;-68
2021/08/09 12:15:16;;;;;;;;;;;;;;;;;;5055139;28;20066;-68
2021/08/09 12:17:42;;;;;;;;;;;;;;;;;;5054729;28;20304;-69
2021/08/09 12:20:08;;;;;;;;;;;;;;;;;;5054432;28;19916;-68
2021/08/09 12:22:34;;;;;;;;;;;;;;;;;;5055819;28;20300;-68
2021/08/09 12:25:00;;;;;;;;;;;;;;;;;;5054538;28;19935;-68
2021/08/09 12:27:26;;;;;;;;;;;;;;;;;;5054311;28;20358;-69
2021/08/09 12:29:52;;;;;;;;;;;;;;;;;;5055052;28;19913;-68
2021/08/09 12:32:22;;;;;;;;;;;;;;;;;;5054734;28;20335;-70
2021/08/09 12:34:47;;;;;;;;;;;;;;;;;;5050454;28;19913;-69
2021/08/09 12:37:13;;;;;;;;;;;;;;;;;;5053256;28;19971;-70
2021/08/09 12:39:39;;;;;;;;;;;;;;;;;;5048779;28;19959;-70
2021/08/09 12:42:05;;;;;;;;;;;;;;;;;;5054420;28;20280;-70
2021/08/09 12:44:31;;;;;;;;;;;;;;;;;;5054460;28;19920;-70
2021/08/09 12:46:57;;;;;;;;;;;;;;;;;;5054977;28;19955;-70
2021/08/09 12:49:23;;;;;;;;;;;;;;;;;;5054720;28;19908;-70
2021/08/09 12:51:48;;;;;;;;;;;;;;;;;;5053951;28;20312;-70
2021/08/09 12:54:14;;;;;;;;;;;;;;;;;;5054209;28;20090;-70
2021/08/09 12:56:40;;;;;;;;;;;;;;;;;;5052088;28;19932;-69
2021/08/09 12:59:06;;;;;;;;;;;;;;;;;;5053383;28;19915;-70
2021/08/09 13:01:32;;;;;;;;;;;;;;;;;;5054532;28;19909;-70
2021/08/09 13:03:58;;;;;;;;;;;;;;;;;;5047665;28;19913;-70
2021/08/09 13:06:24;;;;;;;;;;;;;;;;;;5041543;28;20257;-70
2021/08/09 13:08:50;;;;;;;;;;;;;;;;;;5053530;28;19920;-70
2021/08/09 13:11:16;;;;;;;;;;;;;;;;;;5051447;28;19920;-69
2021/08/09 13:13:42;;;;;;;;;;;;;;;;;;5045363;28;19936;-70
2021/08/09 13:16:08;;;;;;;;;;;;;;;;;;5051121;28;20015;-70
2021/08/09 13:18:34;;;;;;;;;;;;;;;;;;5051707;28;20341;-70
2021/08/09 13:21:00;;;;;;;;;;;;;;;;;;5051752;28;19913;-70
2021/08/09 13:23:26;;;;;;;;;;;;;;;;;;5051311;28;19959;-70
2021/08/09 13:25:51;;;;;;;;;;;;;;;;;;5054130;28;20007;-70
2021/08/09 13:28:17;;;;;;;;;;;;;;;;;;5053920;28;19924;-70
2021/08/09 13:30:43;;;;;;;;;;;;;;;;;;5053748;28;20403;-70
2021/08/09 13:33:09;;;;;;;;;;;;;;;;;;5053548;28;20387;-70
2021/08/09 13:35:35;;;;;;;;;;;;;;;;;;5053185;28;19921;-70
2021/08/09 13:38:01;;;;;;;;;;;;;;;;;;5053725;28;19909;-70
2021/08/09 13:40:27;;;;;;;;;;;;;;;;;;5028313;28;19919;-70
2021/08/09 13:42:58;;;;;;;;;;;;;;;;;;5050115;28;20011;-70
2021/08/09 13:45:24;;;;;;;;;;;;;;;;;;5053423;28;20368;-70
2021/08/09 13:47:50;;;;;;;;;;;;;;;;;;5053056;28;19913;-70
2021/08/09 13:50:16;;;;;;;;;;;;;;;;;;5053418;28;19913;-70
2021/08/09 13:52:41;;;;;;;;;;;;;;;;;;5053872;28;19944;-71
2021/08/09 13:55:07;;;;;;;;;;;;;;;;;;5052266;28;19921;-71
2021/08/09 13:57:33;;;;;;;;;;;;;;;;;;5048983;28;19919;-71
2021/08/09 13:59:59;;;;;;;;;;;;;;;;;;5053262;28;20273;-71
2021/08/09 14:02:25;;;;;;;;;;;;;;;;;;5053330;28;19917;-71
2021/08/09 14:04:51;;;;;;;;;;;;;;;;;;5053675;28;19909;-71
2021/08/09 14:07:17;;;;;;;;;;;;;;;;;;5052020;28;19908;-71
2021/08/09 14:09:43;;;;;;;;;;;;;;;;;;5053062;28;20284;-70
2021/08/09 14:12:08;;;;;;;;;;;;;;;;;;5053020;28;19999;-72
2021/08/09 14:14:34;;;;;;;;;;;;;;;;;;5052933;28;20442;-71
2021/08/09 14:17:02;;;;;;;;;;;;;;;;;;5052987;28;19923;-71
2021/08/09 14:19:28;;;;;;;;;;;;;;;;;;5053357;28;20267;-71
2021/08/09 14:21:54;;;;;;;;;;;;;;;;;;5052249;28;19921;-71
2021/08/09 14:24:20;;;;;;;;;;;;;;;;;;5052094;28;19920;-71
2021/08/09 14:26:46;;;;;;;;;;;;;;;;;;5052561;28;19946;-71
2021/08/09 14:29:12;;;;;;;;;;;;;;;;;;5052723;28;19928;-71
2021/08/09 14:31:38;;;;;;;;;;;;;;;;;;5052997;28;19939;-71
2021/08/09 14:34:03;;;;;;;;;;;;;;;;;;5041094;28;19928;-71
2021/08/09 14:36:29;;;;;;;;;;;;;;;;;;5045611;28;20364;-71
2021/08/09 14:38:56;;;;;;;;;;;;;;;;;;5052788;28;19913;-72
2021/08/09 14:41:23;;;;;;;;;;;;;;;;;;5052441;28;19941;-71
2021/08/09 14:43:49;;;;;;;;;;;;;;;;;;5038205;28;19967;-71
2021/08/09 14:46:15;;;;;;;;;;;;;;;;;;5040550;28;19917;-71
2021/08/09 14:48:41;;;;;;;;;;;;;;;;;;5047398;28;19964;-71
2021/08/09 14:51:06;;;;;;;;;;;;;;;;;;5051772;28;19913;-71
2021/08/09 14:53:34;;;;;;;;;;;;;;;;;;5051647;28;19912;-70
2021/08/09 14:56:00;;;;;;;;;;;;;;;;;;5051856;28;20387;-71
2021/08/09 14:58:26;;;;;;;;;;;;;;;;;;5048261;28;19912;-71
2021/08/09 15:00:52;;;;;;;;;;;;;;;;;;5050869;28;19909;-71
2021/08/09 15:03:18;;;;;;;;;;;;;;;;;;5044923;28;20008;-71
2021/08/09 15:05:44;;;;;;;;;;;;;;;;;;5051957;28;19967;-71
2021/08/09 15:08:10;;;;;;;;;;;;;;;;;;5051627;28;19913;-71
2021/08/09 15:10:36;;;;;;;;;;;;;;;;;;5052041;28;19956;-71
2021/08/09 15:13:02;;;;;;;;;;;;;;;;;;5051726;28;19909;-71
2021/08/09 15:15:28;;;;;;;;;;;;;;;;;;5051332;28;20304;-71
2021/08/09 15:17:54;;;;;;;;;;;;;;;;;;5046975;28;19909;-71
2021/08/09 15:20:20;;;;;;;;;;;;;;;;;;5033386;28;19920;-71
2021/08/09 15:22:45;;;;;;;;;;;;;;;;;;5052412;28;20000;-71
2021/08/09 15:25:11;;;;;;;;;;;;;;;;;;5051579;28;19966;-72
2021/08/09 15:27:37;;;;;;;;;;;;;;;;;;5051229;28;19939;-71
2021/08/09 15:30:03;;;;;;;;;;;;;;;;;;5051472;28;19915;-71
2021/08/09 15:32:29;;;;;;;;;;;;;;;;;;5051188;28;19952;-71
2021/08/09 15:34:55;;;;;;;;;;;;;;;;;;5050658;28;19913;-72
2021/08/09 15:37:21;;;;;;;;;;;;;;;;;;5051861;28;19960;-71
2021/08/09 15:39:47;;;;;;;;;;;;;;;;;;5051304;28;20288;-71
2021/08/09 15:42:13;;;;;;;;;;;;;;;;;;5050979;28;20004;-71
2021/08/09 15:44:39;;;;;;;;;;;;;;;;;;5051198;28;19909;-71
2021/08/09 15:47:04;;;;;;;;;;;;;;;;;;5033063;28;20288;-71
2021/08/09 15:49:30;;;;;;;;;;;;;;;;;;5052025;28;19913;-71
2021/08/09 15:51:56;;;;;;;;;;;;;;;;;;5051137;28;19916;-71
2021/08/09 15:54:25;;;;;;;;;;;;;;;;;;5033538;28;20011;-71
2021/08/09 15:56:51;;;;;;;;;;;;;;;;;;5046728;28;19991;-71
2021/08/09 15:59:17;;;;;;;;;;;;;;;;;;5050932;28;19948;-70
2021/08/09 16:01:42;;;;;;;;;;;;;;;;;;5051592;28;19952;-71
2021/08/09 16:04:08;;;;;;;;;;;;;;;;;;5051039;28;19975;-70
2021/08/09 16:06:34;;;;;;;;;;;;;;;;;;5051344;28;19916;-71
2021/08/09 16:09:00;;;;;;;;;;;;;;;;;;5032939;28;19913;-71
2021/08/09 16:11:26;;;;;;;;;;;;;;;;;;5051201;28;19928;-71
2021/08/09 16:13:52;;;;;;;;;;;;;;;;;;5051190;28;20288;-71
2021/08/09 16:16:18;;;;;;;;;;;;;;;;;;5050633;28;20023;-71
2021/08/09 16:18:44;;;;;;;;;;;;;;;;;;5050780;28;19956;-71
2021/08/09 16:21:10;;;;;;;;;;;;;;;;;;5050641;28;20358;-71
2021/08/09 16:23:36;;;;;;;;;;;;;;;;;;5051383;28;19917;-71
2021/08/09 16:26:01;;;;;;;;;;;;;;;;;;5051113;28;20380;-71
2021/08/09 16:28:27;;;;;;;;;;;;;;;;;;5051566;28;19948;-71
2021/08/09 16:30:55;;;;;;;;;;;;;;;;;;5049636;28;19967;-71
2021/08/09 16:33:21;;;;;;;;;;;;;;;;;;5049368;28;20000;-71
2021/08/09 16:35:48;;;;;;;;;;;;;;;;;;5050172;28;19917;-71